Time;durP1;ratioP1;P1;durP2;ratioP2;P2;SDS_P1;SDS_P2;PMS_P1;PMS_P2;Temp;Humidity;BMP_temperature;BMP_pressure;BME280_temperature;BME280_humidity;BME280_pressure;Samples;Min_cycle;Max_cycle;Signal;HPM_P1;HPM_P2
2023/04/14 00:00:36;;;;;;;3.20;2.17;;;;;;;8.49;60.32;95339.28;4989392;28;20964;-69
2023/04/14 00:03:01;;;;;;;3.93;2.10;;;;;;;8.46;60.06;95342.91;4989248;28;20259;-69
2023/04/14 00:05:28;;;;;;;6.57;2.53;;;;;;;8.40;60.06;95353.69;4989309;28;20682;-69
2023/04/14 00:07:54;;;;;;;4.00;2.00;;;;;;;8.45;60.09;95342.97;4989130;28;20181;-69
2023/04/14 00:10:19;;;;;;;2.90;2.07;;;;;;;8.49;60.16;95347.13;5003282;28;20498;-69
2023/04/14 00:12:45;;;;;;;2.47;1.90;;;;;;;8.48;59.85;95341.06;4989418;28;20173;-69
2023/04/14 00:15:10;;;;;;;2.80;2.27;;;;;;;8.40;59.96;95348.44;4989426;28;20172;-69
2023/04/14 00:17:36;;;;;;;3.07;1.90;;;;;;;8.45;59.41;95356.03;4988691;28;20317;-69
2023/04/14 00:20:02;;;;;;;5.90;2.80;;;;;;;8.48;59.75;95342.84;4989067;28;20196;-69
2023/04/14 00:22:28;;;;;;;3.40;2.63;;;;;;;8.46;59.76;95336.84;4987662;28;20323;-69
2023/04/14 00:24:54;;;;;;;5.70;3.27;;;;;;;8.46;60.44;95349.91;4988838;28;20416;-69
2023/04/14 00:27:19;;;;;;;3.13;2.83;;;;;;;8.28;60.92;95349.91;4988684;28;20582;-69
2023/04/14 00:29:45;;;;;;;3.13;2.63;;;;;;;8.40;60.88;95345.00;4988751;28;20183;-69
2023/04/14 00:32:10;;;;;;;4.53;2.93;;;;;;;8.36;60.40;95346.91;4988726;28;20207;-69
2023/04/14 00:34:36;;;;;;;5.30;4.03;;;;;;;8.36;60.66;95359.09;4989096;28;20227;-69
2023/04/14 00:37:01;;;;;;;3.43;2.50;;;;;;;8.23;60.54;95361.53;4988477;28;20184;-69
2023/04/14 00:39:26;;;;;;;9.43;2.90;;;;;;;8.16;61.17;95365.38;4988450;28;20259;-69
2023/04/14 00:41:52;;;;;;;5.53;3.50;;;;;;;8.26;61.16;95363.97;4986843;28;20209;-69
2023/04/14 00:44:17;;;;;;;6.23;3.47;;;;;;;8.28;60.08;95368.19;4988753;28;20177;-68
2023/04/14 00:46:43;;;;;;;7.50;2.90;;;;;;;8.25;60.54;95370.97;4988414;28;20200;-70
2023/04/14 00:49:09;;;;;;;5.80;3.57;;;;;;;8.15;61.07;95372.38;4988947;28;20176;-68
2023/04/14 00:51:35;;;;;;;10.90;3.93;;;;;;;8.28;60.45;95368.19;4988301;28;20201;-67
2023/04/14 00:54:07;;;;;;;6.93;4.00;;;;;;;8.25;59.83;95370.97;4988587;28;20507;-67
2023/04/14 00:56:32;;;;;;;5.57;3.50;;;;;;;8.25;60.55;95370.13;4988178;28;20416;-67
2023/04/14 00:59:02;;;;;;;3.73;2.90;;;;;;;8.16;60.65;95365.38;4988436;28;20419;-69
2023/04/14 01:01:28;;;;;;;2.93;2.50;;;;;;;8.19;59.94;95370.44;4988208;28;20193;-69
2023/04/14 01:03:54;;;;;;;4.70;2.80;;;;;;;8.13;60.39;95371.59;4988335;28;20487;-69
2023/04/14 01:06:20;;;;;;;8.67;3.87;;;;;;;8.19;60.27;95368.66;4988042;28;20427;-69
2023/04/14 01:08:47;;;;;;;10.10;5.03;;;;;;;8.19;59.65;95365.22;4988037;28;20423;-69
2023/04/14 01:11:17;;;;;;;5.73;3.10;;;;;;;8.31;58.74;95368.97;4988278;28;20228;-69
2023/04/14 01:14:13;;;;;;;5.90;3.10;;;;;;;8.23;58.62;95371.97;4988183;28;20408;-69
2023/04/14 01:16:40;;;;;;;2.40;2.20;;;;;;;8.17;58.83;95367.03;4987638;28;20416;-68
2023/04/14 01:19:06;;;;;;;4.50;2.23;;;;;;;8.08;59.00;95381.44;4988051;28;20455;-68
2023/04/14 01:21:42;;;;;;;3.50;2.20;;;;;;;8.21;59.23;95365.97;4986134;28;20448;-70
2023/04/14 01:24:20;;;;;;;4.10;2.20;;;;;;;8.11;59.58;95367.38;4987963;28;20188;-69
2023/04/14 01:26:50;;;;;;;5.70;2.50;;;;;;;8.18;59.43;95372.22;4987534;28;20414;-68
2023/04/14 01:29:15;;;;;;;4.70;2.43;;;;;;;8.26;59.38;95377.03;4987883;28;20451;-68
2023/04/14 01:31:52;;;;;;;4.73;1.70;;;;;;;8.25;59.67;95375.34;4987648;28;20475;-69
2023/04/14 01:34:32;;;;;;;4.67;2.63;;;;;;;8.21;59.28;95372.03;4987825;28;20172;-68
2023/04/14 01:37:05;;;;;;;3.20;2.00;;;;;;;8.26;59.68;95370.03;4987458;28;20423;-69
2023/04/14 01:39:35;;;;;;;5.13;2.17;;;;;;;8.26;60.18;95372.66;4987761;28;20420;-69
2023/04/14 01:42:05;;;;;;;5.07;2.40;;;;;;;8.19;60.94;95366.03;4987505;28;20483;-69
2023/04/14 01:44:33;;;;;;;3.87;2.30;;;;;;;8.17;61.39;95367.03;4987943;28;20451;-69
2023/04/14 01:47:02;;;;;;;4.00;2.30;;;;;;;8.13;61.01;95365.53;4987347;28;20783;-68
2023/04/14 01:49:31;;;;;;;3.00;2.00;;;;;;;8.17;61.64;95367.91;4987650;28;20499;-69
2023/04/14 01:51:59;;;;;;;2.67;2.23;;;;;;;8.10;62.10;95369.13;4987356;28;20494;-69
2023/04/14 01:54:26;;;;;;;5.67;2.30;;;;;;;8.02;62.14;95371.28;4987589;28;20424;-68
2023/04/14 01:56:53;;;;;;;4.73;3.07;;;;;;;8.10;62.44;95368.28;4987362;28;20423;-68
2023/04/14 01:59:21;;;;;;;7.33;3.20;;;;;;;8.15;61.74;95361.91;4987437;28;20416;-68
2023/04/14 02:01:49;;;;;;;11.13;2.67;;;;;;;8.06;62.33;95371.06;4987337;28;20451;-69
2023/04/14 02:04:20;;;;;;;4.23;2.63;;;;;;;8.10;61.98;95365.66;4987487;28;21237;-69
2023/04/14 02:06:47;;;;;;;7.43;1.90;;;;;;;7.99;62.72;95364.47;4987166;28;20416;-69
2023/04/14 02:09:14;;;;;;;3.33;2.57;;;;;;;7.92;63.32;95367.47;4987585;28;20448;-69
2023/04/14 02:11:42;;;;;;;4.17;2.67;;;;;;;7.94;63.03;95365.63;4987433;28;20442;-69
2023/04/14 02:14:09;;;;;;;4.10;2.40;;;;;;;7.94;62.95;95368.22;4987611;28;20842;-69
2023/04/14 02:16:36;;;;;;;3.20;2.57;;;;;;;7.95;63.45;95372.53;4987225;28;21214;-69
2023/04/14 02:19:04;;;;;;;2.63;2.10;;;;;;;8.11;62.57;95372.59;4987454;28;20428;-69
2023/04/14 02:21:32;;;;;;;4.27;2.53;;;;;;;8.05;63.26;95364.16;4987366;28;20432;-69
2023/04/14 02:23:57;;;;;;;3.53;2.50;;;;;;;7.98;63.17;95372.34;4987475;28;20460;-68
2023/04/14 02:26:28;;;;;;;8.43;3.10;;;;;;;7.98;63.35;95367.97;4987379;28;20420;-69
2023/04/14 02:29:14;;;;;;;4.27;2.73;;;;;;;8.10;62.31;95363.06;4986312;28;20176;-68
2023/04/14 02:31:53;;;;;;;4.30;2.47;;;;;;;8.16;62.30;95365.38;4987968;28;21080;-69
2023/04/14 02:34:24;;;;;;;3.80;3.23;;;;;;;8.15;62.44;95364.53;4990898;28;20474;-68
2023/04/14 02:36:56;;;;;;;5.03;2.50;;;;;;;8.06;61.64;95362.38;4991065;28;20781;-69
2023/04/14 02:39:42;;;;;;;5.10;2.43;;;;;;;7.96;61.65;95366.38;4991130;28;20454;-69
2023/04/14 02:42:14;;;;;;;8.43;3.27;;;;;;;7.93;62.73;95369.97;4990909;28;20459;-68
2023/04/14 02:44:55;;;;;;;7.30;3.13;;;;;;;8.00;62.19;95370.53;4990890;28;21005;-69
2023/04/14 02:47:53;;;;;;;3.80;2.20;;;;;;;7.90;62.83;95377.97;4990660;28;20399;-69
2023/04/14 02:50:21;;;;;;;8.30;2.73;;;;;;;7.76;63.45;95370.81;4981577;28;20450;-69
2023/04/14 02:52:50;;;;;;;5.57;3.53;;;;;;;7.79;63.33;95367.22;4990489;28;20420;-69
2023/04/14 02:55:17;;;;;;;3.73;2.40;;;;;;;7.79;62.93;95372.44;4990769;28;20869;-69
2023/04/14 02:57:44;;;;;;;9.67;3.10;;;;;;;7.76;63.24;95359.53;4990755;28;21121;-69
2023/04/14 03:00:11;;;;;;;9.70;3.03;;;;;;;7.80;63.06;95363.69;4990741;28;20435;-69
2023/04/14 03:02:37;;;;;;;6.93;2.67;;;;;;;7.76;62.72;95365.59;4990452;28;20546;-69
2023/04/14 03:05:04;;;;;;;3.83;3.00;;;;;;;7.66;63.35;95363.53;4990602;28;20818;-69
2023/04/14 03:07:31;;;;;;;3.63;2.17;;;;;;;7.80;62.98;95356.69;4990361;28;20415;-68
2023/04/14 03:09:57;;;;;;;4.10;2.67;;;;;;;7.79;62.94;95359.38;4990291;28;20439;-69
2023/04/14 03:12:24;;;;;;;5.57;2.90;;;;;;;7.82;63.11;95356.63;4990527;28;20487;-69
2023/04/14 03:14:50;;;;;;;7.63;2.87;;;;;;;7.63;63.72;95347.09;4990595;28;20408;-68
2023/04/14 03:17:19;;;;;;;4.63;2.80;;;;;;;7.73;63.36;95342.25;4990063;28;20416;-69
2023/04/14 03:19:47;;;;;;;9.13;4.50;;;;;;;7.74;63.23;95338.72;4990167;28;20416;-69
2023/04/14 03:22:14;;;;;;;4.73;2.40;;;;;;;7.69;63.34;95338.09;4990249;28;20460;-69
2023/04/14 03:24:41;;;;;;;4.07;2.37;;;;;;;7.87;62.65;95327.66;4990235;28;20459;-69
2023/04/14 03:27:13;;;;;;;7.10;2.93;;;;;;;7.71;62.62;95330.19;4989852;28;20518;-69
2023/04/14 03:29:43;;;;;;;5.50;2.53;;;;;;;7.62;62.97;95327.09;4990155;28;20418;-68
2023/04/14 03:32:10;;;;;;;5.97;2.93;;;;;;;7.73;61.56;95320.53;4990198;28;20944;-69
2023/04/14 03:34:45;;;;;;;13.67;3.17;;;;;;;7.79;60.32;95321.03;4989919;28;20431;-69
2023/04/14 03:37:15;;;;;;;7.83;2.37;;;;;;;7.62;60.49;95329.72;4989449;28;20418;-68
2023/04/14 03:39:42;;;;;;;12.63;2.87;;;;;;;7.77;60.02;95328.13;4989795;28;20416;-68
2023/04/14 03:42:10;;;;;;;5.33;2.70;;;;;;;7.28;61.43;95320.09;4989640;28;20478;-68
2023/04/14 03:44:38;;;;;;;6.73;2.37;;;;;;;7.62;60.47;95314.03;4989580;28;20424;-69
2023/04/14 03:47:06;;;;;;;12.10;2.50;;;;;;;7.66;60.62;95319.13;4987974;28;20424;-67
2023/04/14 03:49:35;;;;;;;7.70;2.70;;;;;;;7.70;59.90;95313.69;4989738;28;20431;-67
2023/04/14 03:52:06;;;;;;;5.00;2.60;;;;;;;7.62;59.72;95313.22;4989875;28;20408;-68
2023/04/14 03:54:33;;;;;;;10.90;2.90;;;;;;;7.68;59.60;95317.28;4989929;28;20467;-69
2023/04/14 03:57:03;;;;;;;4.60;2.17;;;;;;;7.69;59.80;95329.41;4989174;28;20963;-68
2023/04/14 03:59:30;;;;;;;4.47;2.00;;;;;;;7.79;59.21;95314.97;4989710;28;20408;-68
2023/04/14 04:02:01;;;;;;;18.10;5.13;;;;;;;7.71;59.88;95320.59;4988964;28;20436;-68
2023/04/14 04:04:28;;;;;;;8.10;3.40;;;;;;;7.58;60.33;95327.31;4989252;28;20424;-68
2023/04/14 04:06:54;;;;;;;10.13;3.80;;;;;;;7.70;60.20;95328.50;4989326;28;20503;-67
2023/04/14 04:09:23;;;;;;;6.40;2.80;;;;;;;7.84;59.94;95331.25;4989506;28;20851;-67
2023/04/14 04:11:51;;;;;;;12.73;3.00;;;;;;;7.85;59.65;95344.25;4987988;28;20299;-68
2023/04/14 04:14:20;;;;;;;17.13;5.87;;;;;;;7.83;59.80;95340.03;4989355;28;21063;-68
2023/04/14 04:16:50;;;;;;;10.63;4.40;;;;;;;7.61;59.77;95338.47;4988781;28;20932;-68
2023/04/14 04:19:20;;;;;;;7.93;3.27;;;;;;;7.63;59.91;95343.63;4988885;28;20427;-68
2023/04/14 04:21:48;;;;;;;5.93;3.30;;;;;;;7.63;59.68;95352.31;4988668;28;21202;-68
2023/04/14 04:24:16;;;;;;;6.80;3.23;;;;;;;7.57;60.04;95351.75;4988831;28;20420;-68
2023/04/14 04:26:42;;;;;;;9.33;3.13;;;;;;;7.63;59.79;95362.75;4988737;28;20420;-69
2023/04/14 04:29:11;;;;;;;9.20;3.30;;;;;;;7.55;59.87;95371.88;4987717;28;20482;-69
2023/04/14 04:31:38;;;;;;;8.57;3.63;;;;;;;7.50;60.67;95379.91;4989519;28;20200;-68
2023/04/14 04:34:04;;;;;;;17.37;3.50;;;;;;;7.68;59.62;95366.88;4988600;28;20424;-67
2023/04/14 04:36:34;;;;;;;13.20;3.50;;;;;;;7.73;59.77;95373.59;4988513;28;20422;-68
2023/04/14 04:38:59;;;;;;;9.00;3.27;;;;;;;7.75;59.83;95379.59;4988572;28;20416;-68
2023/04/14 04:41:27;;;;;;;8.53;4.20;;;;;;;7.82;59.64;95374.91;4982963;28;20467;-68
2023/04/14 04:43:53;;;;;;;10.53;3.47;;;;;;;7.91;58.91;95378.81;4988745;28;20208;-68
2023/04/14 04:46:37;;;;;;;7.23;3.87;;;;;;;7.77;59.44;95374.28;5003968;28;20406;-68
2023/04/14 04:49:02;;;;;;;8.67;3.80;;;;;;;7.63;60.12;95380.19;4968931;28;20181;-68
2023/04/14 04:51:27;;;;;;;14.23;4.97;;;;;;;7.83;59.23;95372.19;4967687;28;20440;-68
2023/04/14 04:53:53;;;;;;;14.23;4.10;;;;;;;7.63;59.84;95377.59;4964702;28;20170;-69
2023/04/14 04:56:20;;;;;;;6.73;2.90;;;;;;;7.58;59.81;95379.53;4964185;28;20181;-68
2023/04/14 04:58:45;;;;;;;12.00;4.00;;;;;;;7.56;61.04;95379.63;4966237;28;20185;-68
2023/04/14 05:01:11;;;;;;;9.57;3.30;;;;;;;7.66;60.69;95379.19;4973389;28;20866;-68
2023/04/14 05:03:37;;;;;;;15.93;4.50;;;;;;;7.71;60.78;95379.81;4980799;28;20296;-68
2023/04/14 05:06:05;;;;;;;4.10;2.70;;;;;;;7.76;60.78;95388.25;4966063;28;20244;-67
2023/04/14 05:08:31;;;;;;;11.43;3.77;;;;;;;7.74;60.88;95384.88;4966796;28;20181;-68
2023/04/14 05:10:56;;;;;;;15.17;4.73;;;;;;;7.92;60.89;95391.81;4982359;28;20452;-68
2023/04/14 05:13:22;;;;;;;7.60;3.37;;;;;;;7.97;59.95;95392.41;4971991;28;20177;-68
2023/04/14 05:15:47;;;;;;;11.93;3.87;;;;;;;8.07;59.40;95398.03;4982754;28;20183;-68
2023/04/14 05:18:13;;;;;;;14.63;4.33;;;;;;;8.02;60.17;95405.25;4975050;28;20201;-68
2023/04/14 05:20:38;;;;;;;11.70;4.23;;;;;;;8.13;59.93;95407.34;4965639;28;20216;-68
2023/04/14 05:23:04;;;;;;;8.50;4.10;;;;;;;8.10;60.20;95402.25;4968711;28;20674;-68
2023/04/14 05:25:30;;;;;;;16.93;3.93;;;;;;;8.04;59.95;95411.25;4988100;28;20674;-68
2023/04/14 05:27:55;;;;;;;15.20;3.50;;;;;;;8.11;59.95;95411.81;4972721;28;20276;-68
2023/04/14 05:30:20;;;;;;;11.87;3.70;;;;;;;8.12;59.19;95413.47;4967543;28;20299;-68
2023/04/14 05:32:46;;;;;;;4.40;3.43;;;;;;;8.16;59.55;95408.03;4973778;28;20177;-67
2023/04/14 05:35:11;;;;;;;12.30;4.80;;;;;;;8.25;59.04;95419.78;4966366;28;20185;-67
2023/04/14 05:37:37;;;;;;;15.43;4.43;;;;;;;8.23;59.11;95424.25;4981711;28;20184;-67
2023/04/14 05:40:03;;;;;;;11.10;3.50;;;;;;;8.17;59.91;95424.53;4973458;28;20742;-67
2023/04/14 05:42:28;;;;;;;9.10;4.40;;;;;;;8.13;59.28;95425.63;4970613;28;20196;-68
2023/04/14 05:44:53;;;;;;;16.70;4.20;;;;;;;8.16;59.18;95433.31;4973240;28;20651;-68
2023/04/14 05:47:19;;;;;;;9.53;4.47;;;;;;;8.19;59.68;95434.00;4981427;28;20267;-68
2023/04/14 05:49:45;;;;;;;5.77;4.00;;;;;;;8.13;59.48;95444.78;4980627;28;20200;-68
2023/04/14 05:52:10;;;;;;;13.07;4.57;;;;;;;8.13;60.24;95444.78;4971516;28;20187;-68
2023/04/14 05:54:36;;;;;;;9.23;3.47;;;;;;;8.25;59.59;95456.38;4976743;28;20683;-68
2023/04/14 05:57:01;;;;;;;16.67;6.00;;;;;;;8.29;58.94;95455.28;4978608;28;20525;-68
2023/04/14 05:59:27;;;;;;;17.60;6.60;;;;;;;8.28;58.88;95454.44;4988307;28;20175;-68
2023/04/14 06:01:52;;;;;;;16.93;6.57;;;;;;;8.28;59.07;95459.66;4973746;28;20197;-68
2023/04/14 06:04:17;;;;;;;22.73;5.30;;;;;;;8.12;60.08;95457.91;4975321;28;20647;-68
2023/04/14 06:06:43;;;;;;;10.53;4.50;;;;;;;8.01;59.82;95451.44;4977063;28;20657;-68
2023/04/14 06:09:09;;;;;;;17.00;4.90;;;;;;;8.16;59.59;95449.84;4987232;28;20180;-68
2023/04/14 06:11:34;;;;;;;13.37;4.83;;;;;;;8.09;59.98;95451.06;4983620;28;20251;-68
2023/04/14 06:14:01;;;;;;;13.10;4.87;;;;;;;8.27;59.40;95452.78;4972447;28;20201;-67
2023/04/14 06:16:27;;;;;;;12.70;3.97;;;;;;;8.33;58.82;95438.53;4979473;28;20209;-67
2023/04/14 06:18:52;;;;;;;17.07;4.30;;;;;;;8.45;58.85;95437.09;4981513;28;20984;-69
2023/04/14 06:21:20;;;;;;;6.33;2.10;;;;;;;9.65;72.06;95428.13;4985864;28;20203;-68
2023/04/14 06:23:46;;;;;;;12.47;3.60;;;;;;;9.84;54.50;95414.81;4985569;28;20204;-68
2023/04/14 06:26:11;;;;;;;6.83;2.90;;;;;;;9.10;55.55;95424.13;4987888;28;20422;-69
2023/04/14 06:28:36;;;;;;;7.53;3.70;;;;;;;8.82;55.63;95422.97;4988437;28;20662;-69
2023/04/14 06:31:02;;;;;;;8.40;4.13;;;;;;;8.87;55.73;95420.13;4988050;28;20235;-69
2023/04/14 06:33:28;;;;;;;10.17;3.23;;;;;;;8.92;55.84;95415.47;4986805;28;20963;-69
2023/04/14 06:35:53;;;;;;;10.57;3.10;;;;;;;8.96;55.31;95413.56;4968302;28;20188;-69
2023/04/14 06:38:19;;;;;;;13.93;4.40;;;;;;;9.03;54.93;95407.91;4968773;28;20203;-69
2023/04/14 06:40:45;;;;;;;5.60;3.13;;;;;;;8.93;54.06;95396.25;4967578;28;20227;-69
2023/04/14 06:43:10;;;;;;;9.93;4.30;;;;;;;9.07;54.45;95396.34;4968889;28;20308;-68
2023/04/14 06:45:36;;;;;;;10.67;4.03;;;;;;;9.11;53.89;95397.84;4968725;28;20632;-68
2023/04/14 06:48:01;;;;;;;12.30;3.43;;;;;;;9.40;54.07;95395.44;4970850;28;20174;-68
2023/04/14 06:50:27;;;;;;;19.03;4.93;;;;;;;10.08;51.57;95396.84;4970918;28;20241;-69
2023/04/14 06:52:52;;;;;;;8.50;3.53;;;;;;;10.67;49.57;95379.38;4971235;28;20161;-69
2023/04/14 06:55:18;;;;;;;12.50;3.33;;;;;;;10.82;48.79;95374.97;4969462;28;20181;-69
2023/04/14 06:57:43;;;;;;;7.73;2.93;;;;;;;11.17;47.86;95385.06;4970204;28;20291;-68
2023/04/14 07:00:10;;;;;;;10.17;3.43;;;;;;;11.15;47.42;95379.94;4970036;28;20221;-69
2023/04/14 07:02:35;;;;;;;9.53;3.03;;;;;;;10.99;47.70;95376.56;4990339;28;20315;-68
2023/04/14 07:05:01;;;;;;;8.23;3.77;;;;;;;10.70;48.55;95373.94;4990374;28;20473;-68
2023/04/14 07:07:29;;;;;;;8.60;3.30;;;;;;;10.89;48.38;95378.06;4989472;28;20204;-68
2023/04/14 07:09:54;;;;;;;7.17;2.80;;;;;;;11.36;46.92;95376.88;4984496;28;20254;-68
2023/04/14 07:12:20;;;;;;;8.60;3.23;;;;;;;11.62;46.66;95376.06;4969968;28;20914;-68
2023/04/14 07:14:51;;;;;;;10.57;3.93;;;;;;;12.14;45.32;95374.47;4991401;28;20228;-68
2023/04/14 07:17:19;;;;;;;9.30;2.63;;;;;;;11.95;45.57;95374.84;4989666;28;20626;-68
2023/04/14 07:19:45;;;;;;;6.83;3.20;;;;;;;11.89;45.54;95375.25;4985085;28;20446;-68
2023/04/14 07:22:10;;;;;;;7.07;2.63;;;;;;;12.45;44.76;95365.38;4977953;28;20460;-68
2023/04/14 07:24:37;;;;;;;5.70;2.70;;;;;;;12.51;43.97;95369.34;4989238;28;20188;-69
2023/04/14 07:27:03;;;;;;;7.83;2.90;;;;;;;12.64;42.87;95367.56;4987067;28;20627;-69
2023/04/14 07:29:31;;;;;;;6.37;2.33;;;;;;;11.97;44.84;95377.34;4989588;28;20416;-68
2023/04/14 07:31:57;;;;;;;6.47;2.50;;;;;;;12.82;42.99;95368.09;4989460;28;20456;-68
2023/04/14 07:34:23;;;;;;;15.70;2.97;;;;;;;13.12;41.96;95375.63;4989784;28;20488;-69
2023/04/14 07:36:49;;;;;;;9.67;3.03;;;;;;;13.60;41.12;95377.56;4989273;28;20420;-68
2023/04/14 07:39:15;;;;;;;10.93;3.40;;;;;;;13.04;42.29;95369.22;4983259;28;20702;-69
2023/04/14 07:41:40;;;;;;;15.20;3.80;;;;;;;13.49;42.07;95377.50;4970285;28;20444;-69
2023/04/14 07:44:05;;;;;;;16.23;3.80;;;;;;;13.52;41.27;95380.75;4970266;28;20205;-69
2023/04/14 07:46:34;;;;;;;10.80;4.03;;;;;;;14.08;40.07;95377.56;4981083;28;20181;-69
2023/04/14 07:48:59;;;;;;;6.40;2.43;;;;;;;14.25;40.40;95378.94;4989615;28;20177;-69
2023/04/14 07:51:25;;;;;;;11.83;3.20;;;;;;;14.28;39.76;95370.78;4988914;28;20431;-69
2023/04/14 07:53:51;;;;;;;19.30;5.07;;;;;;;14.67;39.29;95378.47;4989605;28;20243;-69
2023/04/14 07:56:18;;;;;;;7.63;3.20;;;;;;;14.83;39.13;95376.34;4981353;28;20181;-68
2023/04/14 07:58:43;;;;;;;15.20;3.87;;;;;;;14.88;38.57;95374.19;4976692;28;20494;-68
2023/04/14 08:01:09;;;;;;;11.23;3.43;;;;;;;14.96;38.15;95385.00;4984815;28;20451;-69
2023/04/14 08:03:36;;;;;;;7.73;3.30;;;;;;;14.63;39.05;95388.44;4981575;28;20220;-68
2023/04/14 08:06:02;;;;;;;7.30;3.20;;;;;;;14.30;38.84;95386.53;4988898;28;20280;-69
2023/04/14 08:08:28;;;;;;;16.70;3.07;;;;;;;13.85;39.45;95397.72;4988176;28;20412;-68
2023/04/14 08:10:54;;;;;;;14.20;3.87;;;;;;;14.14;39.80;95390.28;4988910;28;20440;-69
2023/04/14 08:13:19;;;;;;;20.20;3.30;;;;;;;14.38;39.50;95386.78;4988910;28;20164;-68
2023/04/14 08:15:44;;;;;;;7.70;3.20;;;;;;;14.52;38.79;95389.22;4988822;28;20658;-69
2023/04/14 08:18:10;;;;;;;7.03;2.50;;;;;;;14.28;39.12;95391.91;4988818;28;20219;-69
2023/04/14 08:20:36;;;;;;;5.43;2.67;;;;;;;14.72;38.31;95395.66;5003456;28;20633;-69
2023/04/14 08:23:02;;;;;;;7.23;2.53;;;;;;;14.82;37.94;95390.50;4989063;28;20844;-69
2023/04/14 08:25:27;;;;;;;6.93;2.80;;;;;;;13.95;39.13;95395.25;4988813;28;20408;-69
2023/04/14 08:27:53;;;;;;;8.20;2.87;;;;;;;14.48;38.95;95393.06;4987281;28;20238;-69
2023/04/14 08:30:18;;;;;;;7.03;2.20;;;;;;;15.08;37.22;95377.91;4987685;28;20204;-69
2023/04/14 08:32:44;;;;;;;8.90;3.53;;;;;;;14.96;37.04;95386.81;4988680;28;20175;-69
2023/04/14 08:35:10;;;;;;;9.43;3.03;;;;;;;15.17;36.86;95379.84;4988478;28;20173;-69
2023/04/14 08:37:35;;;;;;;5.77;2.40;;;;;;;14.14;38.61;95390.28;4987708;28;20801;-68
2023/04/14 08:40:00;;;;;;;12.20;3.17;;;;;;;15.40;37.37;95390.38;4988346;28;20204;-68
2023/04/14 08:42:26;;;;;;;5.67;2.20;;;;;;;15.47;36.09;95383.66;4988262;28;20204;-69
2023/04/14 08:44:52;;;;;;;8.00;2.40;;;;;;;14.86;36.43;95385.81;4988285;28;20191;-69
2023/04/14 08:47:21;;;;;;;12.83;3.20;;;;;;;15.28;37.08;95375.50;4984272;28;20181;-69
2023/04/14 08:50:06;;;;;;;5.37;2.67;;;;;;;15.38;36.63;95385.25;4987663;28;20180;-69
2023/04/14 08:52:35;;;;;;;4.87;2.30;;;;;;;15.92;40.83;95380.97;4988685;28;20510;-68
2023/04/14 08:55:01;;;;;;;6.67;2.23;;;;;;;16.08;39.20;95383.19;4988896;28;20499;-68
2023/04/14 08:57:30;;;;;;;2.90;2.03;;;;;;;16.16;36.40;95379.91;4985913;28;20440;-67
2023/04/14 08:59:56;;;;;;;10.23;2.70;;;;;;;16.63;35.59;95377.75;4988098;28;20424;-69
2023/04/14 09:02:22;;;;;;;10.80;3.00;;;;;;;16.90;35.40;95377.25;4987264;28;20451;-67
2023/04/14 09:04:48;;;;;;;12.13;3.13;;;;;;;16.71;33.97;95384.09;4980670;28;20803;-68
2023/04/14 09:07:14;;;;;;;9.73;3.13;;;;;;;15.95;33.86;95383.34;4986585;28;20184;-68
2023/04/14 09:09:42;;;;;;;11.23;3.10;;;;;;;15.73;35.00;95386.06;4987940;28;20921;-68
2023/04/14 09:12:08;;;;;;;9.40;2.77;;;;;;;15.88;35.35;95380.38;4977059;28;20444;-69
2023/04/14 09:14:34;;;;;;;20.47;3.90;;;;;;;15.99;35.66;95383.94;4980881;28;20879;-68
2023/04/14 09:17:01;;;;;;;7.67;2.33;;;;;;;15.91;35.43;95384.56;4978825;28;20271;-69
2023/04/14 09:19:27;;;;;;;44.00;6.13;;;;;;;15.95;35.96;95383.34;4987275;28;20435;-69
2023/04/14 09:21:54;;;;;;;7.17;2.33;;;;;;;15.80;35.48;95374.88;4983955;28;20485;-70
2023/04/14 09:24:28;;;;;;;12.30;3.40;;;;;;;15.81;35.64;95384.47;4985268;28;20971;-69
2023/04/14 09:26:54;;;;;;;10.30;3.27;;;;;;;15.37;36.65;95386.19;4982276;28;20404;-69
2023/04/14 09:29:19;;;;;;;4.80;2.63;;;;;;;15.25;36.50;95387.16;4987855;28;20412;-69
2023/04/14 09:31:46;;;;;;;8.27;3.93;;;;;;;15.83;35.92;95381.72;5002693;28;20444;-67
2023/04/14 09:34:16;;;;;;;5.27;2.80;;;;;;;16.28;35.57;95376.25;4984869;28;20188;-67
2023/04/14 09:37:04;;;;;;;6.73;2.93;;;;;;;15.43;35.34;95387.53;4987297;28;20423;-69
2023/04/14 09:39:30;;;;;;;11.60;2.70;;;;;;;15.49;35.80;95391.47;4987727;28;20416;-69
2023/04/14 09:41:55;;;;;;;8.93;2.40;;;;;;;15.47;36.18;95388.94;4987214;28;20458;-67
2023/04/14 09:44:21;;;;;;;7.83;2.60;;;;;;;15.74;34.49;95379.81;4987309;28;20527;-67
2023/04/14 09:47:06;;;;;;;12.07;3.53;;;;;;;15.92;34.68;95372.16;4987327;28;20203;-69
2023/04/14 09:49:32;;;;;;;6.20;2.30;;;;;;;15.70;34.96;95373.91;4985848;28;20434;-68
2023/04/14 09:52:04;;;;;;;12.00;3.90;;;;;;;15.67;35.04;95364.41;4987090;28;20467;-68
2023/04/14 09:54:30;;;;;;;5.40;2.37;;;;;;;15.64;34.63;95358.53;4987316;28;20412;-69
2023/04/14 09:56:56;;;;;;;8.73;4.60;;;;;;;16.17;34.63;95358.59;4986839;28;20428;-69
2023/04/14 09:59:37;;;;;;;10.63;3.22;;;;;;;15.57;34.96;95352.88;4987780;28;20447;-69
2023/04/14 10:02:06;;;;;;;4.90;2.33;;;;;;;16.22;34.21;95345.00;4985804;28;20201;-68
2023/04/14 10:04:32;;;;;;;11.53;2.97;;;;;;;16.67;32.99;95348.22;4982729;28;20419;-68
2023/04/14 10:06:58;;;;;;;6.27;2.83;;;;;;;16.89;33.35;95349.06;4986866;28;20486;-67
2023/04/14 10:09:28;;;;;;;8.33;2.50;;;;;;;16.06;33.99;95345.41;4987085;28;20412;-67
2023/04/14 10:12:12;;;;;;;5.03;2.97;;;;;;;16.01;33.87;95344.97;4972208;28;20201;-69
2023/04/14 10:14:41;;;;;;;4.03;2.43;;;;;;;16.35;33.20;95339.53;4986691;28;20420;-70
2023/04/14 10:17:06;;;;;;;8.03;2.67;;;;;;;16.80;32.46;95329.50;4986360;28;20564;-71
2023/04/14 10:19:32;;;;;;;12.13;2.77;;;;;;;17.14;32.10;95330.06;4986754;28;20944;-68
2023/04/14 10:21:58;;;;;;;33.33;3.70;;;;;;;17.11;32.42;95333.00;4976435;28;20197;-67
2023/04/14 10:24:24;;;;;;;15.57;3.33;;;;;;;16.81;32.03;95335.66;4979410;28;20431;-67
2023/04/14 10:26:51;;;;;;;15.93;4.20;;;;;;;16.32;32.47;95331.81;4983483;28;20184;-67
2023/04/14 10:29:18;;;;;;;12.80;2.53;;;;;;;16.42;32.16;95324.81;4977437;28;20434;-69
2023/04/14 10:31:48;;;;;;;8.73;2.93;;;;;;;16.37;31.24;95319.03;4984681;28;20856;-69
2023/04/14 10:34:15;;;;;;;35.03;5.80;;;;;;;16.93;31.04;95314.22;4978987;28;20417;-67
2023/04/14 10:36:41;;;;;;;14.70;3.13;;;;;;;17.07;29.51;95320.13;4978944;28;20543;-66
2023/04/14 10:39:09;;;;;;;27.53;4.27;;;;;;;16.96;29.36;95310.50;4979237;28;20726;-71
2023/04/14 10:41:45;;;;;;;8.73;2.37;;;;;;;17.19;29.39;95324.38;4985428;28;20847;-70
2023/04/14 10:44:31;;;;;;;5.93;2.50;;;;;;;16.15;30.71;95320.84;4985340;28;20840;-67
2023/04/14 10:46:59;;;;;;;55.90;7.43;;;;;;;16.13;31.28;95329.88;4976347;28;20784;-71
2023/04/14 10:49:31;;;;;;;8.20;3.20;;;;;;;16.01;31.39;95331.72;4985320;28;20531;-67
2023/04/14 10:52:18;;;;;;;22.97;4.40;;;;;;;15.67;31.03;95327.38;4981130;28;20444;-69
2023/04/14 10:55:06;;;;;;;14.57;2.83;;;;;;;15.07;31.83;95315.47;4983364;28;20451;-69
2023/04/14 10:57:39;;;;;;;12.83;3.00;;;;;;;15.18;33.67;95325.19;4984735;28;20424;-68
2023/04/14 11:00:22;;;;;;;10.30;3.30;;;;;;;15.58;33.45;95333.41;4978905;28;20479;-69
2023/04/14 11:03:06;;;;;;;17.10;2.90;;;;;;;15.54;32.31;95320.56;4979810;28;20600;-70
2023/04/14 11:05:33;;;;;;;9.97;2.53;;;;;;;15.52;31.21;95330.41;4985617;28;20428;-70
2023/04/14 11:08:00;;;;;;;7.83;2.30;;;;;;;15.11;32.26;95316.06;4985680;28;20438;-69
2023/04/14 11:10:27;;;;;;;7.80;2.77;;;;;;;14.75;33.79;95315.34;4987221;28;20460;-67
2023/04/14 11:13:00;;;;;;;6.20;2.27;;;;;;;14.93;33.91;95316.56;4984357;28;20424;-67
2023/04/14 11:15:48;;;;;;;16.60;3.80;;;;;;;15.60;33.13;95304.19;4987344;28;20419;-68
2023/04/14 11:18:32;;;;;;;9.00;3.23;;;;;;;15.71;32.64;95304.19;4983048;28;20441;-67
2023/04/14 11:21:05;;;;;;;69.00;11.83;;;;;;;15.58;33.24;95300.84;4980486;28;20463;-68
2023/04/14 11:23:31;;;;;;;12.90;3.07;;;;;;;15.22;33.30;95294.91;4994776;28;20899;-67
2023/04/14 11:25:57;;;;;;;69.27;10.83;;;;;;;15.21;33.72;95291.44;4987442;28;20442;-68
2023/04/14 11:28:28;;;;;;;14.97;3.10;;;;;;;15.70;33.51;95294.56;4988188;28;20420;-68
2023/04/14 11:30:54;;;;;;;6.73;2.87;;;;;;;15.83;30.17;95287.31;4987881;28;20816;-67
2023/04/14 11:33:20;;;;;;;7.90;2.37;;;;;;;16.22;29.27;95284.94;4986474;28;20446;-68
2023/04/14 11:35:46;;;;;;;26.53;3.50;;;;;;;16.15;29.90;95282.94;4980048;28;20792;-67
2023/04/14 11:38:13;;;;;;;11.83;2.80;;;;;;;16.54;29.45;95275.25;4986698;28;20463;-68